sensor_id;sensor_type;location;lat;lon;timestamp;temperature;humidity
292;DHT22;23311;48.776;9.162;2023-04-08T00:00:54;8.50;95.50
292;DHT22;23311;48.776;9.162;2023-04-08T00:03:23;8.50;95.50
292;DHT22;23311;48.776;9.162;2023-04-08T00:05:51;8.50;95.50
292;DHT22;23311;48.776;9.162;2023-04-08T00:08:19;8.50;95.50
292;DHT22;23311;48.776;9.162;2023-04-08T00:10:47;8.50;95.50
292;DHT22;23311;48.776;9.162;2023-04-08T00:13:16;8.50;95.50
292;DHT22;23311;48.776;9.162;2023-04-08T00:15:45;8.40;95.50
292;DHT22;23311;48.776;9.162;2023-04-08T00:18:15;8.50;95.50
292;DHT22;23311;48.776;9.162;2023-04-08T00:20:43;8.40;95.50
292;DHT22;23311;48.776;9.162;2023-04-08T00:23:12;8.50;95.50
292;DHT22;23311;48.776;9.162;2023-04-08T00:25:40;8.40;95.50
292;DHT22;23311;48.776;9.162;2023-04-08T00:28:08;8.40;95.50
292;DHT22;23311;48.776;9.162;2023-04-08T00:30:36;8.30;95.50
292;DHT22;23311;48.776;9.162;2023-04-08T00:33:04;8.30;95.50
292;DHT22;23311;48.776;9.162;2023-04-08T00:35:34;8.30;95.50
292;DHT22;23311;48.776;9.162;2023-04-08T00:38:02;8.20;95.50
292;DHT22;23311;48.776;9.162;2023-04-08T00:40:33;8.20;95.50
292;DHT22;23311;48.776;9.162;2023-04-08T00:43:01;8.20;95.50
292;DHT22;23311;48.776;9.162;2023-04-08T00:45:30;8.10;95.50
292;DHT22;23311;48.776;9.162;2023-04-08T00:47:58;8.10;95.50
292;DHT22;23311;48.776;9.162;2023-04-08T00:50:26;8.20;95.50
292;DHT22;23311;48.776;9.162;2023-04-08T00:52:55;8.10;95.50
292;DHT22;23311;48.776;9.162;2023-04-08T00:55:23;8.20;95.50
292;DHT22;23311;48.776;9.162;2023-04-08T00:57:52;8.20;95.50
292;DHT22;23311;48.776;9.162;2023-04-08T01:00:20;8.20;95.50
292;DHT22;23311;48.776;9.162;2023-04-08T01:02:54;8.30;95.50
292;DHT22;23311;48.776;9.162;2023-04-08T01:05:31;8.30;95.50
292;DHT22;23311;48.776;9.162;2023-04-08T01:08:04;8.30;95.50
292;DHT22;23311;48.776;9.162;2023-04-08T01:10:34;8.30;95.50
292;DHT22;23311;48.776;9.162;2023-04-08T01:13:05;8.30;95.50
292;DHT22;23311;48.776;9.162;2023-04-08T01:15:37;8.30;95.50
292;DHT22;23311;48.776;9.162;2023-04-08T01:18:12;8.30;95.50
292;DHT22;23311;48.776;9.162;2023-04-08T01:20:41;8.20;95.50
292;DHT22;23311;48.776;9.162;2023-04-08T01:23:16;8.20;95.50
292;DHT22;23311;48.776;9.162;2023-04-08T01:25:50;8.10;95.50
292;DHT22;23311;48.776;9.162;2023-04-08T01:28:20;8.10;95.50
292;DHT22;23311;48.776;9.162;2023-04-08T01:30:49;8.10;95.50
292;DHT22;23311;48.776;9.162;2023-04-08T01:33:18;8.10;95.50
292;DHT22;23311;48.776;9.162;2023-04-08T01:35:48;8.10;95.50
292;DHT22;23311;48.776;9.162;2023-04-08T01:38:18;8.10;95.50
292;DHT22;23311;48.776;9.162;2023-04-08T01:40:50;8.10;95.50
292;DHT22;23311;48.776;9.162;2023-04-08T01:43:18;8.10;95.50
292;DHT22;23311;48.776;9.162;2023-04-08T01:45:48;8.10;95.50
292;DHT22;23311;48.776;9.162;2023-04-08T01:48:20;8.10;95.50
292;DHT22;23311;48.776;9.162;2023-04-08T01:50:49;8.00;95.50
292;DHT22;23311;48.776;9.162;2023-04-08T01:53:17;8.00;95.50
292;DHT22;23311;48.776;9.162;2023-04-08T01:55:48;8.00;95.50
292;DHT22;23311;48.776;9.162;2023-04-08T01:58:21;8.00;95.50
292;DHT22;23311;48.776;9.162;2023-04-08T02:00:50;8.00;95.50
292;DHT22;23311;48.776;9.162;2023-04-08T02:03:23;8.00;95.50
292;DHT22;23311;48.776;9.162;2023-04-08T02:05:52;7.90;95.50
292;DHT22;23311;48.776;9.162;2023-04-08T02:08:20;7.80;95.50
292;DHT22;23311;48.776;9.162;2023-04-08T02:10:48;7.80;95.50
292;DHT22;23311;48.776;9.162;2023-04-08T02:13:16;7.70;95.50
292;DHT22;23311;48.776;9.162;2023-04-08T02:15:51;7.70;95.50
292;DHT22;23311;48.776;9.162;2023-04-08T02:18:23;7.80;95.50
292;DHT22;23311;48.776;9.162;2023-04-08T02:20:56;7.80;95.50
292;DHT22;23311;48.776;9.162;2023-04-08T02:23:27;7.80;95.50
292;DHT22;23311;48.776;9.162;2023-04-08T02:25:56;7.80;95.50
292;DHT22;23311;48.776;9.162;2023-04-08T02:28:25;7.80;95.50
292;DHT22;23311;48.776;9.162;2023-04-08T02:30:56;7.70;95.50
292;DHT22;23311;48.776;9.162;2023-04-08T02:33:26;7.70;95.50
292;DHT22;23311;48.776;9.162;2023-04-08T02:35:56;7.70;95.50
292;DHT22;23311;48.776;9.162;2023-04-08T02:38:24;7.70;95.50
292;DHT22;23311;48.776;9.162;2023-04-08T02:40:55;7.70;95.50
292;DHT22;23311;48.776;9.162;2023-04-08T02:43:24;7.70;95.50
292;DHT22;23311;48.776;9.162;2023-04-08T02:46:00;7.70;95.50
292;DHT22;23311;48.776;9.162;2023-04-08T02:48:30;7.70;95.50
292;DHT22;23311;48.776;9.162;2023-04-08T02:50:58;7.70;95.50
292;DHT22;23311;48.776;9.162;2023-04-08T02:53:26;7.70;95.50
292;DHT22;23311;48.776;9.162;2023-04-08T02:55:54;7.70;95.50
292;DHT22;23311;48.776;9.162;2023-04-08T02:58:22;7.70;95.50
292;DHT22;23311;48.776;9.162;2023-04-08T03:00:50;7.70;95.50
292;DHT22;23311;48.776;9.162;2023-04-08T03:03:20;7.70;95.50
292;DHT22;23311;48.776;9.162;2023-04-08T03:05:53;7.70;95.50
292;DHT22;23311;48.776;9.162;2023-04-08T03:08:22;7.70;95.50
292;DHT22;23311;48.776;9.162;2023-04-08T03:10:50;7.70;95.50
292;DHT22;23311;48.776;9.162;2023-04-08T03:13:18;7.70;95.50
292;DHT22;23311;48.776;9.162;2023-04-08T03:15:46;7.60;95.50
292;DHT22;23311;48.776;9.162;2023-04-08T03:18:14;7.60;95.50
292;DHT22;23311;48.776;9.162;2023-04-08T03:20:44;7.60;95.50
292;DHT22;23311;48.776;9.162;2023-04-08T03:23:12;7.60;95.50
292;DHT22;23311;48.776;9.162;2023-04-08T03:25:40;7.60;95.50
292;DHT22;23311;48.776;9.162;2023-04-08T03:28:09;7.50;95.50
292;DHT22;23311;48.776;9.162;2023-04-08T03:30:37;7.60;95.50
292;DHT22;23311;48.776;9.162;2023-04-08T03:33:05;7.60;95.50
292;DHT22;23311;48.776;9.162;2023-04-08T03:35:34;7.60;95.50
292;DHT22;23311;48.776;9.162;2023-04-08T03:38:04;7.60;95.50
292;DHT22;23311;48.776;9.162;2023-04-08T03:40:32;7.60;95.50
292;DHT22;23311;48.776;9.162;2023-04-08T03:43:00;7.60;95.50
292;DHT22;23311;48.776;9.162;2023-04-08T03:45:28;7.60;95.50
292;DHT22;23311;48.776;9.162;2023-04-08T03:47:56;7.70;95.50
292;DHT22;23311;48.776;9.162;2023-04-08T03:50:24;7.60;95.50
292;DHT22;23311;48.776;9.162;2023-04-08T03:52:52;7.70;95.50
292;DHT22;23311;48.776;9.162;2023-04-08T03:55:22;7.60;95.50
292;DHT22;23311;48.776;9.162;2023-04-08T03:57:50;7.70;95.50
292;DHT22;23311;48.776;9.162;2023-04-08T04:00:18;7.70;95.50
292;DHT22;23311;48.776;9.162;2023-04-08T04:02:46;7.60;95.50
292;DHT22;23311;48.776;9.162;2023-04-08T04:05:14;7.60;95.50
292;DHT22;23311;48.776;9.162;2023-04-08T04:07:42;7.60;95.50
292;DHT22;23311;48.776;9.162;2023-04-08T04:10:10;7.60;95.50
292;DHT22;23311;48.776;9.162;2023-04-08T04:12:39;7.60;95.50
292;DHT22;23311;48.776;9.162;2023-04-08T04:15:08;7.70;95.50
292;DHT22;23311;48.776;9.162;2023-04-08T04:17:36;7.60;95.50
292;DHT22;23311;48.776;9.162;2023-04-08T04:20:05;7.60;95.50
292;DHT22;23311;48.776;9.162;2023-04-08T04:22:33;7.60;95.50
292;DHT22;23311;48.776;9.162;2023-04-08T04:25:01;7.60;95.50
292;DHT22;23311;48.776;9.162;2023-04-08T04:27:29;7.50;95.50
292;DHT22;23311;48.776;9.162;2023-04-08T04:29:59;7.50;95.50
292;DHT22;23311;48.776;9.162;2023-04-08T04:32:27;7.50;95.50
292;DHT22;23311;48.776;9.162;2023-04-08T04:34:55;7.40;95.50
292;DHT22;23311;48.776;9.162;2023-04-08T04:37:23;7.30;95.50
292;DHT22;23311;48.776;9.162;2023-04-08T04:39:52;7.20;95.50
292;DHT22;23311;48.776;9.162;2023-04-08T04:42:20;7.10;95.50
292;DHT22;23311;48.776;9.162;2023-04-08T04:44:48;7.10;95.50
292;DHT22;23311;48.776;9.162;2023-04-08T04:47:17;7.00;95.50
292;DHT22;23311;48.776;9.162;2023-04-08T04:49:45;6.90;95.50
292;DHT22;23311;48.776;9.162;2023-04-08T04:52:14;7.00;95.50
292;DHT22;23311;48.776;9.162;2023-04-08T04:54:42;6.90;95.50
292;DHT22;23311;48.776;9.162;2023-04-08T04:57:11;6.90;95.50
292;DHT22;23311;48.776;9.162;2023-04-08T04:59:39;6.90;95.50
292;DHT22;23311;48.776;9.162;2023-04-08T05:02:07;6.90;95.50
292;DHT22;23311;48.776;9.162;2023-04-08T05:04:36;6.90;95.50
292;DHT22;23311;48.776;9.162;2023-04-08T05:07:04;6.90;95.50
292;DHT22;23311;48.776;9.162;2023-04-08T05:09:32;6.90;95.50
292;DHT22;23311;48.776;9.162;2023-04-08T05:12:00;6.80;95.50
292;DHT22;23311;48.776;9.162;2023-04-08T05:14:29;6.80;95.50
292;DHT22;23311;48.776;9.162;2023-04-08T05:16:57;6.90;95.50
292;DHT22;23311;48.776;9.162;2023-04-08T05:19:25;6.90;95.50
292;DHT22;23311;48.776;9.162;2023-04-08T05:21:54;6.80;95.50
292;DHT22;23311;48.776;9.162;2023-04-08T05:24:22;6.70;95.50
292;DHT22;23311;48.776;9.162;2023-04-08T05:26:50;6.70;95.50
292;DHT22;23311;48.776;9.162;2023-04-08T05:29:19;6.70;95.50
292;DHT22;23311;48.776;9.162;2023-04-08T05:31:47;6.60;95.50
292;DHT22;23311;48.776;9.162;2023-04-08T05:34:16;6.60;95.50
292;DHT22;23311;48.776;9.162;2023-04-08T05:36:48;6.80;95.50
292;DHT22;23311;48.776;9.162;2023-04-08T05:39:19;6.80;95.50
292;DHT22;23311;48.776;9.162;2023-04-08T05:41:47;6.90;95.50
292;DHT22;23311;48.776;9.162;2023-04-08T05:44:16;7.00;95.50
292;DHT22;23311;48.776;9.162;2023-04-08T05:46:44;7.10;95.50
292;DHT22;23311;48.776;9.162;2023-04-08T05:49:12;7.20;95.50
292;DHT22;23311;48.776;9.162;2023-04-08T05:51:41;7.20;95.50
292;DHT22;23311;48.776;9.162;2023-04-08T05:54:09;7.40;95.50
292;DHT22;23311;48.776;9.162;2023-04-08T05:56:39;7.40;95.50
292;DHT22;23311;48.776;9.162;2023-04-08T05:59:07;7.50;95.50
292;DHT22;23311;48.776;9.162;2023-04-08T06:01:35;7.50;95.50
292;DHT22;23311;48.776;9.162;2023-04-08T06:04:03;7.60;95.50
292;DHT22;23311;48.776;9.162;2023-04-08T06:06:32;7.50;95.50
292;DHT22;23311;48.776;9.162;2023-04-08T06:09:00;7.60;95.50
292;DHT22;23311;48.776;9.162;2023-04-08T06:11:28;7.70;95.50
292;DHT22;23311;48.776;9.162;2023-04-08T06:13:57;7.70;95.50
292;DHT22;23311;48.776;9.162;2023-04-08T06:16:25;7.70;95.50
292;DHT22;23311;48.776;9.162;2023-04-08T06:18:54;7.70;95.50
292;DHT22;23311;48.776;9.162;2023-04-08T06:21:22;7.70;95.50
292;DHT22;23311;48.776;9.162;2023-04-08T06:23:50;7.80;95.50
292;DHT22;23311;48.776;9.162;2023-04-08T06:26:18;7.80;95.50
292;DHT22;23311;48.776;9.162;2023-04-08T06:28:46;7.80;95.50
292;DHT22;23311;48.776;9.162;2023-04-08T06:31:16;7.80;95.50
292;DHT22;23311;48.776;9.162;2023-04-08T06:33:44;7.80;95.50
292;DHT22;23311;48.776;9.162;2023-04-08T06:36:12;7.90;95.50
292;DHT22;23311;48.776;9.162;2023-04-08T06:38:40;8.00;95.50
292;DHT22;23311;48.776;9.162;2023-04-08T06:41:08;8.10;95.50
292;DHT22;23311;48.776;9.162;2023-04-08T06:43:36;8.20;95.50
292;DHT22;23311;48.776;9.162;2023-04-08T06:46:04;8.20;95.50
292;DHT22;23311;48.776;9.162;2023-04-08T06:48:34;8.20;95.50
292;DHT22;23311;48.776;9.162;2023-04-08T06:51:03;8.30;95.50
292;DHT22;23311;48.776;9.162;2023-04-08T06:53:33;8.30;95.50
292;DHT22;23311;48.776;9.162;2023-04-08T06:56:01;8.20;95.50
292;DHT22;23311;48.776;9.162;2023-04-08T06:58:29;8.20;95.50
292;DHT22;23311;48.776;9.162;2023-04-08T07:00:58;8.20;95.50
292;DHT22;23311;48.776;9.162;2023-04-08T07:03:26;8.30;95.50
292;DHT22;23311;48.776;9.162;2023-04-08T07:05:56;8.30;95.50
292;DHT22;23311;48.776;9.162;2023-04-08T07:08:24;8.40;95.50
292;DHT22;23311;48.776;9.162;2023-04-08T07:10:53;8.50;95.50
292;DHT22;23311;48.776;9.162;2023-04-08T07:13:21;8.60;95.50
292;DHT22;23311;48.776;9.162;2023-04-08T07:15:50;8.70;95.50
292;DHT22;23311;48.776;9.162;2023-04-08T07:18:18;8.80;95.50
292;DHT22;23311;48.776;9.162;2023-04-08T07:20:49;9.00;95.50
292;DHT22;23311;48.776;9.162;2023-04-08T07:23:20;9.10;95.50
292;DHT22;23311;48.776;9.162;2023-04-08T07:25:48;9.30;95.50
292;DHT22;23311;48.776;9.162;2023-04-08T07:28:16;9.40;95.50
292;DHT22;23311;48.776;9.162;2023-04-08T07:30:44;9.30;95.50
292;DHT22;23311;48.776;9.162;2023-04-08T07:33:12;9.40;95.50
292;DHT22;23311;48.776;9.162;2023-04-08T07:35:41;9.60;95.50
292;DHT22;23311;48.776;9.162;2023-04-08T07:38:09;9.70;95.50
292;DHT22;23311;48.776;9.162;2023-04-08T07:40:40;9.90;95.50
292;DHT22;23311;48.776;9.162;2023-04-08T07:43:08;9.80;95.50
292;DHT22;23311;48.776;9.162;2023-04-08T07:45:36;9.70;95.50
292;DHT22;23311;48.776;9.162;2023-04-08T07:48:04;10.00;95.50
292;DHT22;23311;48.776;9.162;2023-04-08T07:50:35;10.20;95.50
292;DHT22;23311;48.776;9.162;2023-04-08T07:53:23;10.60;95.50
292;DHT22;23311;48.776;9.162;2023-04-08T07:55:54;11.10;95.50
292;DHT22;23311;48.776;9.162;2023-04-08T07:58:23;11.00;95.50
292;DHT22;23311;48.776;9.162;2023-04-08T08:00:51;10.50;95.50
292;DHT22;23311;48.776;9.162;2023-04-08T08:03:19;10.50;95.50
292;DHT22;23311;48.776;9.162;2023-04-08T08:05:48;10.70;95.50
292;DHT22;23311;48.776;9.162;2023-04-08T08:08:16;10.50;95.50
292;DHT22;23311;48.776;9.162;2023-04-08T08:10:44;10.40;95.50
292;DHT22;23311;48.776;9.162;2023-04-08T08:13:13;11.00;95.50
292;DHT22;23311;48.776;9.162;2023-04-08T08:15:43;11.20;95.50
292;DHT22;23311;48.776;9.162;2023-04-08T08:18:11;11.20;95.50
292;DHT22;23311;48.776;9.162;2023-04-08T08:20:39;11.00;95.50
292;DHT22;23311;48.776;9.162;2023-04-08T08:23:07;11.00;95.50
292;DHT22;23311;48.776;9.162;2023-04-08T08:25:35;11.30;95.50
292;DHT22;23311;48.776;9.162;2023-04-08T08:28:03;11.30;95.50
292;DHT22;23311;48.776;9.162;2023-04-08T08:30:32;11.20;95.50
292;DHT22;23311;48.776;9.162;2023-04-08T08:33:00;11.20;95.50
292;DHT22;23311;48.776;9.162;2023-04-08T08:35:28;11.30;95.50
292;DHT22;23311;48.776;9.162;2023-04-08T08:37:57;11.40;95.50
292;DHT22;23311;48.776;9.162;2023-04-08T08:40:25;11.30;95.50
292;DHT22;23311;48.776;9.162;2023-04-08T08:42:53;11.10;95.50
292;DHT22;23311;48.776;9.162;2023-04-08T08:45:23;11.50;95.50
292;DHT22;23311;48.776;9.162;2023-04-08T08:47:52;12.10;95.50
292;DHT22;23311;48.776;9.162;2023-04-08T08:50:20;12.40;95.50
292;DHT22;23311;48.776;9.162;2023-04-08T08:52:48;12.40;95.50
292;DHT22;23311;48.776;9.162;2023-04-08T08:55:17;13.00;95.50
292;DHT22;23311;48.776;9.162;2023-04-08T08:58:05;14.00;92.80
292;DHT22;23311;48.776;9.162;2023-04-08T09:00:35;13.00;94.00
292;DHT22;23311;48.776;9.162;2023-04-08T09:03:15;13.90;92.60
292;DHT22;23311;48.776;9.162;2023-04-08T09:05:47;14.30;91.20
292;DHT22;23311;48.776;9.162;2023-04-08T09:08:26;14.40;90.00
292;DHT22;23311;48.776;9.162;2023-04-08T09:10:55;14.80;88.10
292;DHT22;23311;48.776;9.162;2023-04-08T09:13:23;14.50;88.30
292;DHT22;23311;48.776;9.162;2023-04-08T09:16:02;14.10;89.50
292;DHT22;23311;48.776;9.162;2023-04-08T09:18:33;14.20;88.70
292;DHT22;23311;48.776;9.162;2023-04-08T09:21:02;14.10;88.60
292;DHT22;23311;48.776;9.162;2023-04-08T09:23:37;13.90;89.30
292;DHT22;23311;48.776;9.162;2023-04-08T09:26:10;13.70;89.60
292;DHT22;23311;48.776;9.162;2023-04-08T09:28:39;13.50;89.90
292;DHT22;23311;48.776;9.162;2023-04-08T09:31:21;13.80;89.80
292;DHT22;23311;48.776;9.162;2023-04-08T09:33:52;13.60;88.20
292;DHT22;23311;48.776;9.162;2023-04-08T09:36:21;13.00;89.40
292;DHT22;23311;48.776;9.162;2023-04-08T09:38:49;12.90;90.00
292;DHT22;23311;48.776;9.162;2023-04-08T09:41:18;12.80;89.80
292;DHT22;23311;48.776;9.162;2023-04-08T09:43:51;12.50;90.10
292;DHT22;23311;48.776;9.162;2023-04-08T09:46:25;12.50;88.60
292;DHT22;23311;48.776;9.162;2023-04-08T09:49:04;13.40;87.30
292;DHT22;23311;48.776;9.162;2023-04-08T09:51:38;14.30;84.50
292;DHT22;23311;48.776;9.162;2023-04-08T09:54:12;14.90;82.80
292;DHT22;23311;48.776;9.162;2023-04-08T09:56:48;15.10;83.00
292;DHT22;23311;48.776;9.162;2023-04-08T09:59:18;15.40;83.00
292;DHT22;23311;48.776;9.162;2023-04-08T10:01:52;16.00;81.60
292;DHT22;23311;48.776;9.162;2023-04-08T10:04:23;16.30;79.70
292;DHT22;23311;48.776;9.162;2023-04-08T10:06:57;14.80;81.60
292;DHT22;23311;48.776;9.162;2023-04-08T10:09:29;14.60;80.50
292;DHT22;23311;48.776;9.162;2023-04-08T10:11:58;14.30;82.10
292;DHT22;23311;48.776;9.162;2023-04-08T10:14:27;14.30;81.80
292;DHT22;23311;48.776;9.162;2023-04-08T10:17:23;14.40;80.00
292;DHT22;23311;48.776;9.162;2023-04-08T10:19:53;14.40;79.40
292;DHT22;23311;48.776;9.162;2023-04-08T10:22:45;14.30;78.90
292;DHT22;23311;48.776;9.162;2023-04-08T10:25:30;13.60;78.80
292;DHT22;23311;48.776;9.162;2023-04-08T10:27:59;13.70;79.10
292;DHT22;23311;48.776;9.162;2023-04-08T10:30:41;13.10;80.20
292;DHT22;23311;48.776;9.162;2023-04-08T10:33:11;13.00;80.40
292;DHT22;23311;48.776;9.162;2023-04-08T10:35:44;13.10;81.10
292;DHT22;23311;48.776;9.162;2023-04-08T10:38:15;13.10;81.30
292;DHT22;23311;48.776;9.162;2023-04-08T10:40:44;12.80;81.30
292;DHT22;23311;48.776;9.162;2023-04-08T10:43:13;12.80;81.70
292;DHT22;23311;48.776;9.162;2023-04-08T10:45:42;12.70;82.30
292;DHT22;23311;48.776;9.162;2023-04-08T10:48:16;12.70;82.80
292;DHT22;23311;48.776;9.162;2023-04-08T10:50:51;12.20;83.40
292;DHT22;23311;48.776;9.162;2023-04-08T10:53:27;12.50;83.20
292;DHT22;23311;48.776;9.162;2023-04-08T10:56:03;12.80;82.40
292;DHT22;23311;48.776;9.162;2023-04-08T10:58:32;12.50;82.60
292;DHT22;23311;48.776;9.162;2023-04-08T11:01:04;12.40;83.00
292;DHT22;23311;48.776;9.162;2023-04-08T11:03:34;12.60;82.90
292;DHT22;23311;48.776;9.162;2023-04-08T11:06:05;12.70;82.70
292;DHT22;23311;48.776;9.162;2023-04-08T11:08:34;12.50;82.60
292;DHT22;23311;48.776;9.162;2023-04-08T11:11:04;12.30;83.60
292;DHT22;23311;48.776;9.162;2023-04-08T11:13:35;12.50;82.90
292;DHT22;23311;48.776;9.162;2023-04-08T11:16:05;12.20;82.60
292;DHT22;23311;48.776;9.162;2023-04-08T11:18:44;12.10;82.40
292;DHT22;23311;48.776;9.162;2023-04-08T11:21:15;11.90;83.30
292;DHT22;23311;48.776;9.162;2023-04-08T11:23:43;11.90;83.70
292;DHT22;23311;48.776;9.162;2023-04-08T11:26:12;12.00;83.70
292;DHT22;23311;48.776;9.162;2023-04-08T11:28:42;12.20;83.20
292;DHT22;23311;48.776;9.162;2023-04-08T11:31:11;12.30;83.10
292;DHT22;23311;48.776;9.162;2023-04-08T11:33:44;12.30;82.80
292;DHT22;23311;48.776;9.162;2023-04-08T11:36:16;12.50;81.90
292;DHT22;23311;48.776;9.162;2023-04-08T11:38:44;12.30;81.90
292;DHT22;23311;48.776;9.162;2023-04-08T11:41:14;12.30;82.10
292;DHT22;23311;48.776;9.162;2023-04-08T11:43:52;12.30;82.10
292;DHT22;23311;48.776;9.162;2023-04-08T11:46:21;12.20;82.30
292;DHT22;23311;48.776;9.162;2023-04-08T11:48:59;12.20;81.90
292;DHT22;23311;48.776;9.162;2023-04-08T11:51:29;12.20;81.90
292;DHT22;23311;48.776;9.162;2023-04-08T11:53:57;12.40;81.50
292;DHT22;23311;48.776;9.162;2023-04-08T11:56:26;12.40;81.40
292;DHT22;23311;48.776;9.162;2023-04-08T11:58:56;12.40;81.10
292;DHT22;23311;48.776;9.162;2023-04-08T12:01:24;12.40;81.40
292;DHT22;23311;48.776;9.162;2023-04-08T12:03:54;12.40;81.30
292;DHT22;23311;48.776;9.162;2023-04-08T12:06:23;12.50;81.50
292;DHT22;23311;48.776;9.162;2023-04-08T12:08:55;12.70;81.30
292;DHT22;23311;48.776;9.162;2023-04-08T12:11:23;12.80;81.30
292;DHT22;23311;48.776;9.162;2023-04-08T12:13:51;12.90;81.50
292;DHT22;23311;48.776;9.162;2023-04-08T12:16:20;12.70;82.00
292;DHT22;23311;48.776;9.162;2023-04-08T12:18:48;12.40;84.40
292;DHT22;23311;48.776;9.162;2023-04-08T12:21:16;12.40;85.10
292;DHT22;23311;48.776;9.162;2023-04-08T12:23:44;12.50;83.70
292;DHT22;23311;48.776;9.162;2023-04-08T12:26:14;12.60;83.60
292;DHT22;23311;48.776;9.162;2023-04-08T12:28:42;12.90;82.70
292;DHT22;23311;48.776;9.162;2023-04-08T12:31:10;12.70;82.40
292;DHT22;23311;48.776;9.162;2023-04-08T12:33:38;12.70;82.00
292;DHT22;23311;48.776;9.162;2023-04-08T12:36:06;12.60;82.80
292;DHT22;23311;48.776;9.162;2023-04-08T12:38:38;12.50;81.90
292;DHT22;23311;48.776;9.162;2023-04-08T12:41:06;12.60;82.30
292;DHT22;23311;48.776;9.162;2023-04-08T12:43:35;12.60;82.60
292;DHT22;23311;48.776;9.162;2023-04-08T12:46:04;12.70;81.70
292;DHT22;23311;48.776;9.162;2023-04-08T12:48:33;12.60;81.80
292;DHT22;23311;48.776;9.162;2023-04-08T12:51:01;12.60;82.20
292;DHT22;23311;48.776;9.162;2023-04-08T12:53:29;12.70;82.20
292;DHT22;23311;48.776;9.162;2023-04-08T12:55:57;12.90;82.30
292;DHT22;23311;48.776;9.162;2023-04-08T12:58:25;13.00;81.80
292;DHT22;23311;48.776;9.162;2023-04-08T13:00:54;13.00;81.50
292;DHT22;23311;48.776;9.162;2023-04-08T13:03:23;12.70;82.10
292;DHT22;23311;48.776;9.162;2023-04-08T13:05:51;12.70;82.60
292;DHT22;23311;48.776;9.162;2023-04-08T13:08:19;12.70;82.70
292;DHT22;23311;48.776;9.162;2023-04-08T13:10:48;12.60;82.90
292;DHT22;23311;48.776;9.162;2023-04-08T13:13:16;12.20;83.50
292;DHT22;23311;48.776;9.162;2023-04-08T13:15:44;12.00;83.80
292;DHT22;23311;48.776;9.162;2023-04-08T13:18:13;12.00;84.10
292;DHT22;23311;48.776;9.162;2023-04-08T13:20:42;12.00;84.10
292;DHT22;23311;48.776;9.162;2023-04-08T13:23:10;12.00;84.30
292;DHT22;23311;48.776;9.162;2023-04-08T13:25:38;12.10;84.00
292;DHT22;23311;48.776;9.162;2023-04-08T13:28:06;12.00;84.30
292;DHT22;23311;48.776;9.162;2023-04-08T13:30:34;12.20;83.90
292;DHT22;23311;48.776;9.162;2023-04-08T13:33:03;12.20;83.90
292;DHT22;23311;48.776;9.162;2023-04-08T13:35:32;12.50;83.50
292;DHT22;23311;48.776;9.162;2023-04-08T13:38:00;12.70;83.30
292;DHT22;23311;48.776;9.162;2023-04-08T13:40:28;13.00;82.60
292;DHT22;23311;48.776;9.162;2023-04-08T13:42:57;12.90;82.60
292;DHT22;23311;48.776;9.162;2023-04-08T13:45:25;12.80;82.70
292;DHT22;23311;48.776;9.162;2023-04-08T13:47:53;12.60;83.30
292;DHT22;23311;48.776;9.162;2023-04-08T13:50:22;12.70;83.70
292;DHT22;23311;48.776;9.162;2023-04-08T13:52:52;12.80;83.20
292;DHT22;23311;48.776;9.162;2023-04-08T13:55:20;12.20;84.00
292;DHT22;23311;48.776;9.162;2023-04-08T13:57:48;12.00;84.70
292;DHT22;23311;48.776;9.162;2023-04-08T14:00:16;12.00;85.00
292;DHT22;23311;48.776;9.162;2023-04-08T14:02:44;12.20;85.10
292;DHT22;23311;48.776;9.162;2023-04-08T14:05:13;12.30;84.80
292;DHT22;23311;48.776;9.162;2023-04-08T14:07:41;12.40;84.80
292;DHT22;23311;48.776;9.162;2023-04-08T14:10:11;12.50;84.30
292;DHT22;23311;48.776;9.162;2023-04-08T14:12:40;12.70;84.00
292;DHT22;23311;48.776;9.162;2023-04-08T14:15:08;13.00;83.50
292;DHT22;23311;48.776;9.162;2023-04-08T14:17:37;13.00;83.10
292;DHT22;23311;48.776;9.162;2023-04-08T14:20:06;13.20;83.00
292;DHT22;23311;48.776;9.162;2023-04-08T14:22:34;13.60;82.30
292;DHT22;23311;48.776;9.162;2023-04-08T14:25:02;13.70;81.70
292;DHT22;23311;48.776;9.162;2023-04-08T14:27:31;13.80;81.90
292;DHT22;23311;48.776;9.162;2023-04-08T14:30:00;13.90;81.70
292;DHT22;23311;48.776;9.162;2023-04-08T14:32:28;13.80;81.60
292;DHT22;23311;48.776;9.162;2023-04-08T14:34:57;13.50;81.80
292;DHT22;23311;48.776;9.162;2023-04-08T14:37:25;13.60;82.10
292;DHT22;23311;48.776;9.162;2023-04-08T14:39:53;13.10;82.80
292;DHT22;23311;48.776;9.162;2023-04-08T14:42:22;12.90;83.80
292;DHT22;23311;48.776;9.162;2023-04-08T14:44:52;12.80;84.20
292;DHT22;23311;48.776;9.162;2023-04-08T14:47:20;12.50;84.30
292;DHT22;23311;48.776;9.162;2023-04-08T14:49:48;12.00;86.10
292;DHT22;23311;48.776;9.162;2023-04-08T14:52:16;12.20;86.10
292;DHT22;23311;48.776;9.162;2023-04-08T14:54:44;12.60;84.90
292;DHT22;23311;48.776;9.162;2023-04-08T14:57:13;12.70;84.50
292;DHT22;23311;48.776;9.162;2023-04-08T14:59:42;12.70;84.10
292;DHT22;23311;48.776;9.162;2023-04-08T15:02:12;12.80;83.90
292;DHT22;23311;48.776;9.162;2023-04-08T15:04:40;12.80;84.00
292;DHT22;23311;48.776;9.162;2023-04-08T15:07:08;12.80;83.70
292;DHT22;23311;48.776;9.162;2023-04-08T15:09:36;12.30;84.20
292;DHT22;23311;48.776;9.162;2023-04-08T15:12:04;12.10;85.00
292;DHT22;23311;48.776;9.162;2023-04-08T15:14:32;12.30;84.80
292;DHT22;23311;48.776;9.162;2023-04-08T15:17:00;12.30;84.50
292;DHT22;23311;48.776;9.162;2023-04-08T15:19:30;12.10;84.30
292;DHT22;23311;48.776;9.162;2023-04-08T15:21:58;11.90;84.80
292;DHT22;23311;48.776;9.162;2023-04-08T15:24:26;11.90;84.90
292;DHT22;23311;48.776;9.162;2023-04-08T15:26:54;12.00;84.80
292;DHT22;23311;48.776;9.162;2023-04-08T15:29:22;12.00;84.80
292;DHT22;23311;48.776;9.162;2023-04-08T15:31:51;11.80;85.20
292;DHT22;23311;48.776;9.162;2023-04-08T15:34:19;11.90;85.40
292;DHT22;23311;48.776;9.162;2023-04-08T15:36:49;12.00;84.90
292;DHT22;23311;48.776;9.162;2023-04-08T15:39:17;12.00;85.00
292;DHT22;23311;48.776;9.162;2023-04-08T15:41:45;12.00;85.40
292;DHT22;23311;48.776;9.162;2023-04-08T15:44:13;12.00;85.40
292;DHT22;23311;48.776;9.162;2023-04-08T15:46:42;11.90;86.00
292;DHT22;23311;48.776;9.162;2023-04-08T15:49:10;11.90;86.30
292;DHT22;23311;48.776;9.162;2023-04-08T15:51:38;11.70;86.60
292;DHT22;23311;48.776;9.162;2023-04-08T15:54:11;11.70;86.90
292;DHT22;23311;48.776;9.162;2023-04-08T15:56:39;11.60;87.20
292;DHT22;23311;48.776;9.162;2023-04-08T15:59:07;11.60;87.60
292;DHT22;23311;48.776;9.162;2023-04-08T16:01:35;11.70;87.40
292;DHT22;23311;48.776;9.162;2023-04-08T16:04:04;11.80;87.40
292;DHT22;23311;48.776;9.162;2023-04-08T16:06:33;11.70;87.70
292;DHT22;23311;48.776;9.162;2023-04-08T16:09:01;11.60;88.00
292;DHT22;23311;48.776;9.162;2023-04-08T16:11:32;11.70;88.00
292;DHT22;23311;48.776;9.162;2023-04-08T16:14:00;11.70;88.10
292;DHT22;23311;48.776;9.162;2023-04-08T16:16:31;11.60;88.20
292;DHT22;23311;48.776;9.162;2023-04-08T16:18:59;11.60;88.30
292;DHT22;23311;48.776;9.162;2023-04-08T16:21:27;11.60;88.40
292;DHT22;23311;48.776;9.162;2023-04-08T16:23:56;11.70;88.40